Time;durP1;ratioP1;P1;durP2;ratioP2;P2;SDS_P1;SDS_P2;PMS_P1;PMS_P2;Temp;Humidity;BMP_temperature;BMP_pressure;BME280_temperature;BME280_humidity;BME280_pressure;Samples;Min_cycle;Max_cycle;Signal;HPM_P1;HPM_P2
2022/04/15 00:01:22;;;;;;;23.00;12.48;;;10.10;99.90;;;;;;4966126;28;20086;-83
2022/04/15 00:03:48;;;;;;;18.70;12.18;;;10.10;99.90;;;;;;4962507;28;20027;-82
2022/04/15 00:06:15;;;;;;;17.85;11.63;;;10.00;99.90;;;;;;4960899;28;20065;-83
2022/04/15 00:08:41;;;;;;;15.27;10.50;;;10.00;99.90;;;;;;4959997;28;20031;-83
2022/04/15 00:11:07;;;;;;;13.73;9.60;;;10.00;99.90;;;;;;4962036;28;20047;-83
2022/04/15 00:13:33;;;;;;;19.15;9.43;;;10.00;99.90;;;;;;4971750;28;20031;-82
2022/04/15 00:16:02;;;;;;;14.55;9.55;;;10.00;99.90;;;;;;4967190;28;20743;-83
2022/04/15 00:18:28;;;;;;;12.45;8.55;;;9.90;99.90;;;;;;4968012;28;20541;-89
2022/04/15 00:20:54;;;;;;;12.23;8.57;;;9.90;99.90;;;;;;4967296;28;20058;-88
2022/04/15 00:23:22;;;;;;;15.45;8.25;;;9.80;99.90;;;;;;4963993;28;20217;-87
2022/04/15 00:25:49;;;;;;;11.00;7.50;;;9.80;99.90;;;;;;4960028;28;20023;-87
2022/04/15 00:28:16;;;;;;;8.80;6.35;;;9.80;99.90;;;;;;4946964;28;20565;-88
2022/04/15 00:30:41;;;;;;;9.77;7.03;;;9.80;99.90;;;;;;4944172;28;20042;-88
2022/04/15 00:33:07;;;;;;;11.43;7.68;;;9.80;99.90;;;;;;4966607;28;20020;-88
2022/04/15 00:35:39;;;;;;;10.25;7.72;;;9.80;99.90;;;;;;4944034;28;20402;-87
2022/04/15 00:38:05;;;;;;;9.10;6.97;;;9.80;99.90;;;;;;4965394;28;20093;-87
2022/04/15 00:40:31;;;;;;;13.95;7.60;;;9.80;99.90;;;;;;4954873;28;20542;-87
2022/04/15 00:42:56;;;;;;;14.90;7.20;;;9.80;99.90;;;;;;4963357;28;20114;-86
2022/04/15 00:45:23;;;;;;;10.05;7.78;;;9.80;99.90;;;;;;4946236;28;20034;-87
2022/04/15 00:47:57;;;;;;;11.38;7.68;;;9.90;99.90;;;;;;4961416;28;20027;-88
2022/04/15 00:50:31;;;;;;;16.88;9.40;;;9.90;99.90;;;;;;4970086;28;20066;-87
2022/04/15 00:52:59;;;;;;;15.80;9.38;;;9.90;99.90;;;;;;4949021;29;20034;-88
2022/04/15 00:55:25;;;;;;;13.77;9.77;;;9.90;99.90;;;;;;4957908;28;20051;-86
2022/04/15 00:57:56;;;;;;;15.70;9.30;;;10.00;99.90;;;;;;4969011;28;20042;-86
2022/04/15 01:00:23;;;;;;;11.63;8.63;;;10.00;99.90;;;;;;4946036;28;20406;-87
2022/04/15 01:02:50;;;;;;;19.02;9.70;;;10.00;99.90;;;;;;4950202;28;20039;-86
2022/04/15 01:05:17;;;;;;;12.48;8.27;;;10.00;99.90;;;;;;4957703;28;20106;-86
2022/04/15 01:07:47;;;;;;;11.85;7.80;;;9.90;99.90;;;;;;4959927;28;20059;-86
2022/04/15 01:10:14;;;;;;;12.32;7.97;;;9.90;99.90;;;;;;4964030;28;20058;-87
2022/04/15 01:12:44;;;;;;;12.70;8.85;;;9.90;99.90;;;;;;4962145;28;20027;-87
2022/04/15 01:15:15;;;;;;;11.63;9.68;;;9.90;99.90;;;;;;4970832;28;20606;-87
2022/04/15 01:17:42;;;;;;;16.73;9.13;;;9.80;99.90;;;;;;4949530;28;20034;-86
2022/04/15 01:20:10;;;;;;;13.68;9.57;;;9.80;99.90;;;;;;4956606;28;20038;-87
2022/04/15 01:23:06;;;;;;;13.82;10.35;;;9.70;99.90;;;;;;4968346;28;20497;-87
2022/04/15 01:25:31;;;;;;;10.82;9.00;;;9.60;99.90;;;;;;4923968;28;20138;-86
2022/04/15 01:27:58;;;;;;;14.57;8.95;;;9.60;99.90;;;;;;4961778;28;20050;-89
2022/04/15 01:30:23;;;;;;;15.73;10.15;;;9.50;99.90;;;;;;4970290;28;20047;-90
2022/04/15 01:32:50;;;;;;;16.88;10.75;;;9.50;99.90;;;;;;4945644;28;20027;-87
2022/04/15 01:35:17;;;;;;;17.55;11.43;;;9.40;99.90;;;;;;4939201;28;20117;-88
2022/04/15 01:37:44;;;;;;;17.27;11.20;;;9.40;99.90;;;;;;4958323;28;20110;-87
2022/04/15 01:40:12;;;;;;;18.33;10.48;;;9.40;99.90;;;;;;4953542;28;20029;-86
2022/04/15 01:42:39;;;;;;;16.77;10.75;;;9.30;99.90;;;;;;4944120;28;20046;-88
2022/04/15 01:45:06;;;;;;;19.52;12.00;;;9.30;99.90;;;;;;4952836;28;20031;-86
2022/04/15 01:47:32;;;;;;;17.50;9.60;;;9.20;99.90;;;;;;4968531;28;20033;-86
2022/04/15 01:49:58;;;;;;;12.77;9.65;;;9.20;99.90;;;;;;4952579;28;20039;-88
2022/04/15 01:52:24;;;;;;;13.00;9.80;;;9.20;99.90;;;;;;4946820;28;20465;-90
2022/04/15 01:54:50;;;;;;;14.80;10.10;;;9.20;99.90;;;;;;4955230;28;20114;-87
2022/04/15 01:57:16;;;;;;;16.77;10.02;;;9.20;99.90;;;;;;4952392;28;20590;-87
2022/04/15 01:59:43;;;;;;;14.32;10.20;;;9.10;99.90;;;;;;4964841;28;20489;-87
2022/04/15 02:02:09;;;;;;;12.57;9.20;;;9.10;99.90;;;;;;4960136;28;20024;-87
2022/04/15 02:04:35;;;;;;;14.50;8.57;;;9.10;99.90;;;;;;4967809;28;20042;-87
2022/04/15 02:07:01;;;;;;;10.85;8.15;;;9.10;99.90;;;;;;4948575;28;20035;-86
2022/04/15 02:09:27;;;;;;;17.23;8.45;;;9.10;99.90;;;;;;4951071;28;20054;-87
2022/04/15 02:11:53;;;;;;;11.25;8.50;;;9.10;99.90;;;;;;4960247;28;20034;-88
2022/04/15 02:14:19;;;;;;;13.18;8.18;;;9.10;99.90;;;;;;4950589;28;20027;-87
2022/04/15 02:16:46;;;;;;;12.30;7.20;;;9.10;99.90;;;;;;4959505;28;20102;-86
2022/04/15 02:19:12;;;;;;;12.35;7.05;;;9.10;99.90;;;;;;4949745;28;20019;-87
2022/04/15 02:21:38;;;;;;;16.40;8.57;;;9.10;99.90;;;;;;4947221;28;20041;-88
2022/04/15 02:24:04;;;;;;;13.18;8.55;;;9.20;99.90;;;;;;4953600;28;20367;-87
2022/04/15 02:26:30;;;;;;;15.95;8.70;;;9.10;99.90;;;;;;4965691;28;20030;-88
2022/04/15 02:28:56;;;;;;;11.02;7.10;;;9.10;99.90;;;;;;4966106;28;20027;-87
2022/04/15 02:31:22;;;;;;;10.63;6.78;;;9.10;99.90;;;;;;4946608;28;20467;-87
2022/04/15 02:33:48;;;;;;;16.77;7.70;;;9.00;99.90;;;;;;4965278;28;20033;-86
2022/04/15 02:36:14;;;;;;;12.40;8.43;;;9.10;99.90;;;;;;4963988;28;20093;-87
2022/04/15 02:38:40;;;;;;;10.25;7.20;;;9.00;99.90;;;;;;4950007;28;20034;-87
2022/04/15 02:41:06;;;;;;;11.18;7.95;;;9.00;99.90;;;;;;4947638;28;20019;-87
2022/04/15 02:43:33;;;;;;;9.02;6.32;;;9.00;99.90;;;;;;4944336;29;20031;-86
2022/04/15 02:46:00;;;;;;;11.98;7.18;;;9.10;99.90;;;;;;4940792;28;20035;-87
2022/04/15 02:48:26;;;;;;;9.80;6.85;;;9.10;99.90;;;;;;4944802;28;20482;-87
2022/04/15 02:50:53;;;;;;;10.30;7.25;;;9.10;99.90;;;;;;4965356;28;20109;-86
2022/04/15 02:53:19;;;;;;;10.25;6.60;;;9.20;99.90;;;;;;4964366;28;20027;-87
2022/04/15 02:55:45;;;;;;;11.80;7.38;;;9.10;99.90;;;;;;4957202;28;20034;-87
2022/04/15 02:58:14;;;;;;;8.45;6.88;;;9.10;99.90;;;;;;4959844;28;20027;-87
2022/04/15 03:00:40;;;;;;;12.45;6.53;;;9.10;99.90;;;;;;4948695;28;20074;-86
2022/04/15 03:03:06;;;;;;;15.35;6.30;;;9.10;99.90;;;;;;4959044;28;20061;-87
2022/04/15 03:05:31;;;;;;;12.70;7.18;;;9.00;99.90;;;;;;4951706;28;20050;-87
2022/04/15 03:08:00;;;;;;;11.10;6.97;;;8.90;99.90;;;;;;4942886;28;20034;-88
2022/04/15 03:10:26;;;;;;;12.77;7.38;;;8.90;99.90;;;;;;4943392;28;20087;-87
2022/04/15 03:12:52;;;;;;;12.20;6.97;;;8.80;99.90;;;;;;4957133;28;20491;-87
2022/04/15 03:15:26;;;;;;;9.95;6.97;;;8.80;99.90;;;;;;4939201;28;20415;-87
2022/04/15 03:17:53;;;;;;;7.80;6.80;;;8.80;99.90;;;;;;4947993;28;20059;-85
2022/04/15 03:20:21;;;;;;;13.75;6.95;;;8.70;99.90;;;;;;4961034;28;20031;-86
2022/04/15 03:22:49;;;;;;;11.88;6.00;;;8.70;99.90;;;;;;4957569;28;20027;-85
2022/04/15 03:25:48;;;;;;;9.43;5.45;;;8.70;99.90;;;;;;4968661;28;20019;-85
2022/04/15 03:28:15;;;;;;;8.18;5.75;;;8.80;99.90;;;;;;4933429;28;20063;-87
2022/04/15 03:31:05;;;;;;;;;;;;;;;;;;;;;
2022/04/15 03:33:54;;;;;;;14.63;6.07;;;8.80;99.90;;;;;;4962119;28;20019;-86
2022/04/15 03:36:32;;;;;;;8.63;6.00;;;8.80;99.90;;;;;;4901592;28;20042;-85
2022/04/15 03:39:01;;;;;;;10.07;6.13;;;8.80;99.90;;;;;;4964726;28;20118;-87
2022/04/15 03:41:26;;;;;;;12.82;6.28;;;8.80;99.90;;;;;;4964527;28;20031;-87
2022/04/15 03:43:52;;;;;;;9.25;6.32;;;8.80;99.90;;;;;;4963086;28;20392;-87
2022/04/15 03:46:41;;;;;;;10.45;6.43;;;8.80;99.90;;;;;;4965849;28;20031;-86
2022/04/15 03:49:07;;;;;;;10.73;6.40;;;8.70;99.90;;;;;;4933248;29;20035;-87
2022/04/15 03:51:36;;;;;;;9.88;6.60;;;8.70;99.90;;;;;;4966160;28;20082;-87
2022/04/15 03:54:05;;;;;;;8.88;6.50;;;8.70;99.90;;;;;;4968188;28;20029;-86
2022/04/15 03:56:32;;;;;;;6.65;5.55;;;8.70;99.90;;;;;;4966585;28;20031;-86
2022/04/15 03:59:00;;;;;;;10.32;5.50;;;8.70;99.90;;;;;;4949685;28;20031;-87
2022/04/15 04:01:29;;;;;;;9.57;5.22;;;8.70;99.90;;;;;;4967337;28;20031;-87
2022/04/15 04:04:04;;;;;;;14.10;6.65;;;8.70;99.90;;;;;;4966870;28;20061;-85
2022/04/15 04:06:31;;;;;;;9.88;5.68;;;8.70;99.90;;;;;;4947922;28;20514;-85
2022/04/15 04:08:57;;;;;;;9.27;5.65;;;8.70;99.90;;;;;;4959305;28;20031;-87
2022/04/15 04:11:23;;;;;;;6.70;5.65;;;8.60;99.90;;;;;;4961292;28;20081;-88
2022/04/15 04:13:49;;;;;;;12.85;5.75;;;8.60;99.90;;;;;;4950110;28;20019;-87
2022/04/15 04:16:16;;;;;;;11.93;5.57;;;8.60;99.90;;;;;;4967605;28;20108;-87
2022/04/15 04:18:43;;;;;;;17.55;5.72;;;8.60;99.90;;;;;;4966559;28;20018;-86
2022/04/15 04:21:09;;;;;;;10.40;5.70;;;8.50;99.90;;;;;;4945370;28;20161;-87
2022/04/15 04:23:36;;;;;;;8.60;5.55;;;8.60;99.90;;;;;;4965213;28;20046;-87
2022/04/15 04:26:14;;;;;;;13.63;5.03;;;8.60;99.90;;;;;;4966920;28;20102;-87
2022/04/15 04:31:46;;;;;;;11.07;5.55;;;8.70;99.90;;;;;;4953371;28;20058;-87
2022/04/15 04:34:29;;;;;;;12.85;6.20;;;8.80;99.90;;;;;;4948319;28;20608;-87
2022/04/15 04:37:00;;;;;;;10.98;5.53;;;8.80;99.90;;;;;;4961727;28;20027;-87
2022/04/15 04:39:29;;;;;;;7.77;5.47;;;8.80;99.90;;;;;;4939005;29;20063;-86
2022/04/15 04:41:55;;;;;;;10.68;5.35;;;8.80;99.90;;;;;;4960441;28;20035;-86
2022/04/15 04:44:32;;;;;;;9.98;5.60;;;8.80;99.90;;;;;;4969739;28;20110;-85
2022/04/15 04:46:58;;;;;;;7.28;5.05;;;8.80;99.90;;;;;;4947393;28;20512;-86
2022/04/15 04:49:25;;;;;;;7.40;5.05;;;8.80;99.90;;;;;;4941895;29;20434;-87
2022/04/15 04:51:51;;;;;;;9.38;4.55;;;8.80;99.90;;;;;;4947563;28;20042;-87
2022/04/15 04:54:17;;;;;;;8.90;4.80;;;8.90;99.90;;;;;;4942970;29;20024;-87
2022/04/15 04:56:44;;;;;;;6.32;4.68;;;9.00;99.90;;;;;;4963830;28;20110;-87
2022/04/15 04:59:12;;;;;;;9.20;4.45;;;9.00;99.90;;;;;;4945454;29;20083;-86
2022/04/15 05:01:38;;;;;;;6.93;4.50;;;9.10;99.90;;;;;;4961487;28;20019;-86
2022/04/15 05:04:04;;;;;;;6.93;4.80;;;9.20;99.90;;;;;;4967338;28;20034;-86
2022/04/15 05:06:30;;;;;;;9.95;4.63;;;9.30;99.90;;;;;;4967181;28;20101;-86
2022/04/15 05:08:56;;;;;;;10.55;4.95;;;9.40;99.90;;;;;;4951243;28;20031;-86
2022/04/15 05:11:21;;;;;;;8.48;4.72;;;9.40;99.90;;;;;;4966464;28;20034;-85
2022/04/15 05:13:47;;;;;;;8.15;4.60;;;9.50;99.90;;;;;;4966598;28;20031;-85
2022/04/15 05:16:15;;;;;;;8.73;4.90;;;9.60;99.90;;;;;;4952538;28;20039;-88
2022/04/15 05:18:40;;;;;;;6.78;4.57;;;9.70;99.90;;;;;;4947027;29;20079;-88
2022/04/15 05:21:06;;;;;;;8.73;5.00;;;9.80;99.90;;;;;;4943836;28;20023;-89
2022/04/15 05:23:32;;;;;;;7.88;4.32;;;9.90;99.90;;;;;;4946955;28;20030;-87
2022/04/15 05:25:57;;;;;;;7.45;4.30;;;10.00;99.90;;;;;;4949914;28;20073;-88
2022/04/15 05:28:23;;;;;;;7.78;4.20;;;10.10;99.90;;;;;;4951670;28;20029;-87
2022/04/15 05:30:49;;;;;;;8.73;4.78;;;10.10;99.90;;;;;;4959314;28;20034;-88
2022/04/15 05:33:14;;;;;;;8.98;4.60;;;10.20;99.90;;;;;;4962470;28;20077;-90
2022/04/15 05:35:40;;;;;;;8.05;4.55;;;10.20;99.90;;;;;;4968690;28;20177;-89
2022/04/15 05:38:08;;;;;;;6.60;4.55;;;10.40;99.90;;;;;;4966471;28;20030;-88
2022/04/15 05:40:34;;;;;;;10.20;4.63;;;10.50;99.90;;;;;;4951371;28;20599;-88
2022/04/15 05:42:59;;;;;;;8.15;4.45;;;10.60;99.90;;;;;;4963627;28;20027;-88
2022/04/15 05:45:25;;;;;;;9.38;4.68;;;10.70;99.90;;;;;;4970659;28;20038;-88
2022/04/15 05:47:53;;;;;;;7.28;4.95;;;10.70;99.90;;;;;;4961168;28;20043;-87
2022/04/15 05:50:20;;;;;;;7.72;4.40;;;10.80;99.90;;;;;;4970245;28;20039;-88
2022/04/15 05:52:45;;;;;;;7.20;4.40;;;10.90;99.90;;;;;;4954942;28;20505;-86
2022/04/15 05:55:11;;;;;;;12.73;5.05;;;11.00;99.90;;;;;;4945676;28;20058;-88
2022/04/15 05:57:37;;;;;;;19.30;5.57;;;11.10;99.90;;;;;;4964426;28;20020;-81
2022/04/15 06:00:05;;;;;;;7.22;4.53;;;11.10;99.90;;;;;;4953388;28;20031;-86
2022/04/15 06:02:30;;;;;;;26.00;5.22;;;11.30;99.90;;;;;;4962684;28;20087;-85
2022/04/15 06:04:57;;;;;;;9.75;5.90;;;11.40;99.90;;;;;;4967483;28;20607;-88
2022/04/15 06:07:23;;;;;;;12.75;6.05;;;11.40;99.90;;;;;;4946375;28;20035;-85
2022/04/15 06:09:48;;;;;;;12.18;5.55;;;11.60;99.90;;;;;;4943778;28;20039;-83
2022/04/15 06:12:15;;;;;;;11.75;4.90;;;11.80;99.90;;;;;;4942076;28;20063;-85
2022/04/15 06:14:41;;;;;;;8.95;4.95;;;11.90;99.90;;;;;;4948691;28;20037;-84
2022/04/15 06:17:07;;;;;;;7.78;4.18;;;12.10;99.90;;;;;;4964791;28;20460;-83
2022/04/15 06:19:33;;;;;;;12.13;4.72;;;12.20;99.90;;;;;;4957934;28;20019;-84
2022/04/15 06:22:00;;;;;;;7.55;4.65;;;12.30;99.90;;;;;;4961433;28;20055;-82
2022/04/15 06:24:26;;;;;;;8.93;4.75;;;12.40;99.90;;;;;;4951252;28;20493;-82
2022/04/15 06:26:51;;;;;;;13.60;5.15;;;12.50;99.90;;;;;;4944104;28;20058;-83
2022/04/15 06:29:17;;;;;;;10.63;4.70;;;12.60;99.90;;;;;;4962166;28;20035;-86
2022/04/15 06:31:43;;;;;;;11.02;5.05;;;12.80;99.90;;;;;;4967591;28;20023;-82
2022/04/15 06:34:09;;;;;;;9.70;4.90;;;12.90;99.90;;;;;;4958986;28;20122;-82
2022/04/15 06:36:35;;;;;;;10.95;5.03;;;13.00;99.90;;;;;;4945334;28;20105;-83
2022/04/15 06:39:00;;;;;;;10.82;5.05;;;13.10;99.90;;;;;;4950138;28;20117;-82
2022/04/15 06:41:26;;;;;;;10.63;5.03;;;13.20;99.90;;;;;;4963047;28;20035;-84
2022/04/15 06:43:52;;;;;;;11.70;5.45;;;13.30;99.90;;;;;;4970536;28;20105;-84
2022/04/15 06:46:17;;;;;;;10.73;4.68;;;13.40;99.90;;;;;;4966885;28;20029;-84
2022/04/15 06:48:43;;;;;;;14.85;6.60;;;13.50;99.90;;;;;;4959859;28;20031;-84
2022/04/15 06:51:12;;;;;;;12.65;5.80;;;13.60;99.90;;;;;;4955551;28;20039;-82
2022/04/15 06:53:37;;;;;;;14.05;6.75;;;13.80;99.90;;;;;;4962315;28;20019;-84
2022/04/15 06:56:03;;;;;;;13.30;6.45;;;13.90;99.90;;;;;;4948390;28;20549;-85
2022/04/15 06:58:29;;;;;;;21.83;8.25;;;14.00;99.90;;;;;;4945701;28;20037;-84
2022/04/15 07:00:55;;;;;;;29.13;9.52;;;14.10;99.90;;;;;;4953206;28;20058;-82
2022/04/15 07:03:21;;;;;;;33.58;9.88;;;14.10;99.90;;;;;;4952504;28;20035;-83
2022/04/15 07:05:47;;;;;;;35.92;9.82;;;14.20;99.90;;;;;;4960473;28;20165;-83
2022/04/15 07:08:12;;;;;;;30.00;10.15;;;14.30;99.90;;;;;;4947708;28;20504;-83
2022/04/15 07:10:39;;;;;;;23.83;8.88;;;14.40;99.90;;;;;;4966022;28;20055;-84
2022/04/15 07:13:05;;;;;;;23.17;9.68;;;14.60;99.90;;;;;;4962705;28;20047;-83
2022/04/15 07:15:31;;;;;;;16.70;8.65;;;14.70;99.90;;;;;;4942762;28;20072;-91
2022/04/15 07:17:57;;;;;;;17.52;8.25;;;14.90;99.90;;;;;;4990291;28;20019;-93
2022/04/15 07:20:49;;;;;;;20.70;8.27;;;15.00;99.90;;;;;;4967539;28;20031;-96
2022/04/15 07:23:14;;;;;;;19.48;8.75;;;15.10;99.90;;;;;;4956478;28;20031;-88
2022/04/15 07:25:40;;;;;;;18.05;8.40;;;15.20;99.90;;;;;;4965852;28;20047;-83
2022/04/15 07:28:06;;;;;;;26.25;8.60;;;15.40;99.90;;;;;;4956052;29;20058;-96
2022/04/15 07:30:31;;;;;;;20.10;9.23;;;15.50;99.90;;;;;;5016893;23;20052;-89
2022/04/15 07:32:59;;;;;;;21.15;9.10;;;15.60;99.90;;;;;;4962265;28;20123;-90
2022/04/15 07:35:25;;;;;;;23.27;8.85;;;15.60;99.90;;;;;;4975298;28;20022;-89
2022/04/15 07:37:51;;;;;;;24.95;10.73;;;15.60;99.90;;;;;;4958721;28;20038;-89
2022/04/15 07:40:16;;;;;;;24.50;8.88;;;15.60;99.90;;;;;;4973406;28;20037;-84
2022/04/15 07:42:42;;;;;;;22.98;8.80;;;15.70;99.90;;;;;;4978185;28;20037;-91
2022/04/15 07:45:08;;;;;;;21.67;8.77;;;15.80;99.90;;;;;;4991588;28;20022;-89
2022/04/15 07:47:34;;;;;;;30.20;9.93;;;15.80;99.90;;;;;;4958135;28;20067;-95
2022/04/15 07:50:00;;;;;;;20.80;9.10;;;15.90;99.90;;;;;;4958366;28;20034;-90
2022/04/15 07:52:27;;;;;;;22.25;9.25;;;15.90;99.90;;;;;;4974045;28;20015;-96
2022/04/15 07:54:53;;;;;;;33.53;10.00;;;15.90;99.90;;;;;;4971927;28;20053;-93
2022/04/15 07:57:19;;;;;;;24.80;11.68;;;15.70;99.90;;;;;;4968452;28;20490;-96
2022/04/15 07:59:46;;;;;;;32.08;14.05;;;15.60;99.90;;;;;;4951347;28;20020;-96
2022/04/15 08:02:13;;;;;;;30.83;15.43;;;15.60;99.90;;;;;;4966773;28;20027;-90
2022/04/15 08:04:41;;;;;;;32.08;17.23;;;15.60;99.90;;;;;;4960986;28;20019;-94
2022/04/15 08:07:08;;;;;;;31.48;18.63;;;15.70;99.90;;;;;;4976748;28;20158;-88
2022/04/15 08:09:34;;;;;;;28.13;19.33;;;15.80;99.90;;;;;;4941040;28;20031;-87
2022/04/15 08:12:00;;;;;;;35.72;18.73;;;15.60;99.90;;;;;;4974298;28;20065;-86
2022/04/15 08:14:26;;;;;;;28.98;19.80;;;15.60;99.90;;;;;;4965894;28;20632;-86
2022/04/15 08:16:51;;;;;;;30.92;19.90;;;15.60;99.90;;;;;;4972688;28;20054;-86
2022/04/15 08:19:17;;;;;;;31.40;18.48;;;15.50;99.90;;;;;;4951529;28;20112;-86
2022/04/15 08:21:43;;;;;;;38.40;19.80;;;15.60;99.90;;;;;;4974183;28;20019;-86
2022/04/15 08:24:09;;;;;;;33.33;18.17;;;15.70;99.90;;;;;;4966863;28;20471;-87
2022/04/15 08:26:35;;;;;;;28.73;18.58;;;15.60;99.90;;;;;;4967067;28;20027;-88
2022/04/15 08:29:01;;;;;;;33.22;18.17;;;15.60;99.90;;;;;;4963879;28;20031;-87
2022/04/15 08:31:26;;;;;;;27.48;17.25;;;15.70;99.90;;;;;;4972341;28;20039;-87
2022/04/15 08:33:53;;;;;;;26.40;16.42;;;15.70;99.90;;;;;;4938164;28;20379;-87
2022/04/15 08:36:19;;;;;;;29.15;15.85;;;15.70;99.90;;;;;;4962766;28;20027;-86
2022/04/15 08:38:45;;;;;;;23.88;14.10;;;15.70;99.90;;;;;;4958682;28;20030;-86
2022/04/15 08:41:13;;;;;;;26.30;14.57;;;15.70;99.90;;;;;;4954331;28;20031;-87
2022/04/15 08:43:41;;;;;;;22.95;15.10;;;15.80;99.90;;;;;;4973166;28;20022;-86
2022/04/15 08:46:07;;;;;;;25.70;15.55;;;15.90;99.90;;;;;;4959196;28;20236;-87
2022/04/15 08:48:33;;;;;;;27.98;14.40;;;15.90;99.90;;;;;;4977243;28;20478;-87
2022/04/15 08:51:00;;;;;;;30.45;14.60;;;16.00;99.90;;;;;;4974991;28;20053;-87
2022/04/15 08:53:28;;;;;;;27.55;14.90;;;16.10;99.90;;;;;;4974665;28;20518;-88
2022/04/15 08:55:53;;;;;;;21.63;12.27;;;16.10;99.90;;;;;;4973840;28;20067;-86
2022/04/15 08:58:19;;;;;;;23.08;13.20;;;16.10;99.90;;;;;;4976055;28;20107;-87
2022/04/15 09:00:45;;;;;;;23.27;13.27;;;16.10;99.90;;;;;;4975710;28;20031;-88
2022/04/15 09:03:10;;;;;;;19.67;13.07;;;16.30;99.90;;;;;;4957589;28;20022;-87
2022/04/15 09:05:36;;;;;;;18.27;12.15;;;16.30;99.90;;;;;;4974730;28;20035;-83
2022/04/15 09:08:07;;;;;;;18.63;12.15;;;16.30;99.90;;;;;;4975239;28;20026;-83
2022/04/15 09:10:34;;;;;;;20.88;11.63;;;16.30;99.90;;;;;;4973746;28;20047;-84
2022/04/15 09:13:01;;;;;;;16.70;11.27;;;16.40;99.90;;;;;;4973268;28;20077;-83
2022/04/15 09:15:27;;;;;;;22.95;11.23;;;16.40;99.90;;;;;;4973212;28;20057;-83
2022/04/15 09:17:54;;;;;;;20.85;11.02;;;16.60;99.90;;;;;;4973567;28;20029;-83
2022/04/15 09:20:22;;;;;;;19.08;11.13;;;16.70;99.90;;;;;;4955184;28;20382;-83
2022/04/15 09:22:53;;;;;;;25.55;12.60;;;16.80;99.90;;;;;;4972959;28;20026;-83
2022/04/15 09:25:27;;;;;;;27.38;12.68;;;16.80;99.90;;;;;;4972510;28;20493;-84
2022/04/15 09:27:56;;;;;;;24.00;13.18;;;16.80;99.90;;;;;;4972306;28;20117;-83
2022/04/15 09:30:36;;;;;;;31.48;14.15;;;16.90;99.90;;;;;;4946394;28;20047;-83
2022/04/15 09:33:03;;;;;;;25.00;13.98;;;17.00;99.90;;;;;;4954871;28;20026;-83
2022/04/15 09:35:29;;;;;;;22.05;12.55;;;16.90;99.90;;;;;;4953243;28;20126;-83
2022/04/15 09:38:03;;;;;;;24.77;12.75;;;16.90;99.90;;;;;;4970654;28;20026;-82
2022/04/15 09:40:35;;;;;;;27.30;16.40;;;16.90;99.90;;;;;;4951352;28;20043;-84
2022/04/15 09:43:06;;;;;;;;;;;16.90;99.90;;;;;;4954084;28;20359;-83
2022/04/15 09:45:36;;;;;;;24.05;13.68;;;16.80;99.90;;;;;;4952817;28;20345;-83
2022/04/15 09:48:08;;;;;;;25.52;14.23;;;16.70;99.90;;;;;;4953123;28;20696;-83
2022/04/15 09:50:44;;;;;;;27.25;13.30;;;16.70;99.90;;;;;;4953564;28;20042;-83
2022/04/15 09:53:14;;;;;;;33.53;14.50;;;16.70;99.90;;;;;;4971403;28;20044;-83
2022/04/15 09:55:41;;;;;;;29.73;13.77;;;16.70;99.90;;;;;;4954661;28;20027;-84
2022/04/15 09:58:12;;;;;;;29.42;14.13;;;16.80;99.90;;;;;;4954643;28;20034;-82
2022/04/15 10:00:39;;;;;;;30.33;13.75;;;16.90;99.90;;;;;;4945822;28;20023;-83
2022/04/15 10:03:15;;;;;;;20.95;12.60;;;17.00;99.90;;;;;;4970664;28;20037;-84
2022/04/15 10:05:42;;;;;;;30.50;13.98;;;17.00;99.90;;;;;;4972169;28;20050;-83
2022/04/15 10:08:10;;;;;;;23.75;12.98;;;17.30;99.90;;;;;;4972213;28;20031;-83
2022/04/15 10:10:36;;;;;;;24.50;13.27;;;17.30;99.90;;;;;;4971507;28;20093;-82
2022/04/15 10:13:04;;;;;;;23.25;12.90;;;17.50;99.90;;;;;;4972706;28;20034;-82
2022/04/15 10:15:37;;;;;;;23.73;12.73;;;17.50;99.90;;;;;;4971989;28;20093;-83
2022/04/15 10:18:08;;;;;;;28.23;11.85;;;17.50;99.90;;;;;;4973089;28;20070;-83
2022/04/15 10:20:34;;;;;;;30.08;14.10;;;17.50;99.90;;;;;;4954318;28;20031;-80
2022/04/15 10:23:03;;;;;;;23.73;11.65;;;17.50;99.90;;;;;;4972570;28;20445;-87
2022/04/15 10:25:30;;;;;;;24.55;12.85;;;17.50;99.90;;;;;;4971499;28;20061;-82
2022/04/15 10:28:06;;;;;;;27.88;12.25;;;17.60;99.90;;;;;;4971121;28;20398;-83
2022/04/15 10:30:32;;;;;;;21.33;11.07;;;17.70;99.90;;;;;;4972380;28;20046;-84
2022/04/15 10:32:58;;;;;;;24.23;12.40;;;17.80;99.90;;;;;;4955485;28;20027;-87
2022/04/15 10:35:28;;;;;;;28.90;13.73;;;17.90;99.90;;;;;;4974328;28;20031;-90
2022/04/15 10:37:56;;;;;;;26.85;12.50;;;17.90;99.90;;;;;;4971809;28;20085;-80
2022/04/15 10:40:23;;;;;;;35.65;15.45;;;17.80;99.90;;;;;;4971675;28;20485;-78
2022/04/15 10:42:50;;;;;;;30.08;15.65;;;17.60;99.90;;;;;;4954565;28;20034;-83
2022/04/15 10:45:26;;;;;;;29.35;16.17;;;17.50;99.90;;;;;;4972386;28;20106;-82
2022/04/15 10:47:59;;;;;;;29.90;17.00;;;17.20;99.90;;;;;;4956714;28;20027;-81
2022/04/15 10:50:30;;;;;;;31.88;17.50;;;16.90;99.90;;;;;;4975856;28;20042;-80
2022/04/15 10:53:16;;;;;;;34.40;18.60;;;16.90;99.90;;;;;;4968521;28;20058;-94
2022/04/15 10:55:43;;;;;;;24.13;18.17;;;16.90;99.90;;;;;;4949608;28;20038;-82
2022/04/15 10:58:13;;;;;;;32.30;18.20;;;16.90;99.90;;;;;;4979243;28;20034;-95
2022/04/15 11:03:29;;;;;;;26.45;15.93;;;16.60;99.90;;;;;;4979057;28;20497;-92
2022/04/15 11:06:00;;;;;;;27.35;16.48;;;16.80;99.90;;;;;;4958017;28;20030;-83
2022/04/15 11:08:47;;;;;;;25.00;17.50;;;16.70;99.90;;;;;;4977619;28;20027;-83
2022/04/15 11:11:13;;;;;;;30.58;17.50;;;16.70;99.90;;;;;;4977956;28;20030;-82
2022/04/15 11:13:43;;;;;;;34.70;17.38;;;16.90;99.90;;;;;;4958206;28;20641;-83
2022/04/15 11:16:11;;;;;;;28.23;15.70;;;17.00;99.90;;;;;;4957347;28;20030;-82
2022/04/15 11:18:55;;;;;;;28.60;16.40;;;17.20;99.90;;;;;;4975724;28;20022;-83
2022/04/15 11:21:33;;;;;;;32.38;17.95;;;17.20;99.90;;;;;;4974743;28;20022;-83
2022/04/15 11:24:04;;;;;;;27.40;18.35;;;16.90;99.90;;;;;;4968877;28;20022;-84
2022/04/15 11:26:31;;;;;;;31.55;18.48;;;16.90;99.90;;;;;;4957190;28;20478;-84
2022/04/15 11:28:59;;;;;;;32.85;20.38;;;16.80;99.90;;;;;;4976060;28;20035;-83
2022/04/15 11:31:32;;;;;;;41.60;21.42;;;16.90;99.90;;;;;;4975844;28;20055;-83
2022/04/15 11:34:04;;;;;;;31.45;20.05;;;16.90;99.90;;;;;;4977718;28;20490;-85
2022/04/15 11:36:39;;;;;;;32.45;20.70;;;17.00;99.90;;;;;;4974839;28;20045;-83
2022/04/15 11:39:07;;;;;;;35.50;20.73;;;17.00;99.90;;;;;;4975158;28;20019;-85
2022/04/15 11:41:33;;;;;;;30.30;20.23;;;16.90;99.90;;;;;;4974105;28;20023;-83
2022/04/15 11:44:01;;;;;;;38.83;22.67;;;16.90;99.90;;;;;;4974901;28;20018;-84
2022/04/15 11:46:38;;;;;;;33.75;21.35;;;17.00;99.90;;;;;;4957303;28;20375;-83
2022/04/15 11:49:17;;;;;;;36.60;21.35;;;17.10;99.90;;;;;;4968419;28;20529;-84
2022/04/15 11:51:50;;;;;;;31.35;20.92;;;17.30;99.90;;;;;;4956932;28;20097;-83
2022/04/15 11:54:20;;;;;;;35.58;20.98;;;17.30;99.90;;;;;;4975239;28;20033;-83
2022/04/15 11:56:46;;;;;;;32.05;20.58;;;17.40;99.90;;;;;;4974556;28;20023;-83
2022/04/15 11:59:12;;;;;;;33.17;21.85;;;17.40;99.90;;;;;;4973753;28;20569;-83
2022/04/15 12:01:39;;;;;;;33.80;22.00;;;17.50;99.90;;;;;;4974681;28;20050;-83
2022/04/15 12:04:06;;;;;;;46.15;21.13;;;17.60;99.90;;;;;;4975000;28;20069;-83
2022/04/15 12:06:32;;;;;;;35.03;19.10;;;17.70;99.90;;;;;;4956015;28;20031;-83
2022/04/15 12:08:58;;;;;;;33.15;19.52;;;18.40;99.90;;;;;;4957202;28;20493;-82
2022/04/15 12:11:26;;;;;;;38.22;19.92;;;21.10;99.90;;;;;;4956145;28;20042;-83
2022/04/15 12:13:56;;;;;;;30.70;18.42;;;22.50;99.90;;;;;;4973302;28;20018;-83
2022/04/15 12:16:22;;;;;;;35.50;17.92;;;22.50;99.90;;;;;;4974022;28;20027;-83
2022/04/15 12:18:48;;;;;;;30.30;17.52;;;22.80;99.90;;;;;;4957477;28;20039;-83
2022/04/15 12:21:16;;;;;;;29.73;16.83;;;22.80;99.90;;;;;;4973872;28;20125;-83
2022/04/15 12:24:11;;;;;;;36.00;17.83;;;23.00;99.90;;;;;;4974663;28;20050;-82
2022/04/15 12:26:50;;;;;;;37.28;17.17;;;23.40;99.90;;;;;;4973958;28;20067;-82
2022/04/15 12:32:24;;;;;;;35.63;17.17;;;23.90;99.90;;;;;;4973325;28;20560;-83
2022/04/15 12:35:07;;;;;;;30.05;16.95;;;24.40;99.90;;;;;;4974080;28;20039;-83
2022/04/15 12:37:47;;;;;;;25.13;15.10;;;23.80;99.90;;;;;;4954446;28;20585;-83
2022/04/15 12:40:22;;;;;;;28.25;14.52;;;24.20;99.90;;;;;;4974119;28;20513;-83
2022/04/15 12:42:50;;;;;;;36.28;15.85;;;24.90;99.90;;;;;;4956445;28;20371;-83
2022/04/15 12:45:19;;;;;;;30.85;14.48;;;25.90;99.90;;;;;;4974144;28;20458;-83
2022/04/15 12:48:00;;;;;;;26.13;14.32;;;27.00;99.90;;;;;;4971479;28;20099;-83
2022/04/15 12:50:33;;;;;;;34.33;14.87;;;29.60;97.10;;;;;;4973670;28;20034;-81
2022/04/15 12:53:00;;;;;;;28.33;14.50;;;30.50;91.00;;;;;;4973222;28;20490;-82
2022/04/15 12:55:30;;;;;;;33.42;14.70;;;29.60;87.60;;;;;;4973084;28;20038;-83